Time;durP1;ratioP1;P1;durP2;ratioP2;P2;SDS_P1;SDS_P2;PMS_P1;PMS_P2;Temp;Humidity;BMP_temperature;BMP_pressure;BME280_temperature;BME280_humidity;BME280_pressure;Samples;Min_cycle;Max_cycle;Signal;HPM_P1;HPM_P2
2023/07/11 00:01:41;;;;;;;3.45;2.05;;;17.90;99.90;;;;;;5057125;28;20041;-81
2023/07/11 00:04:07;;;;;;;3.55;1.50;;;17.90;99.90;;;;;;5073858;28;20045;-81
2023/07/11 00:06:32;;;;;;;3.97;1.48;;;17.80;99.90;;;;;;5073821;28;20040;-80
2023/07/11 00:08:58;;;;;;;3.15;1.30;;;17.90;99.90;;;;;;5057080;28;20480;-82
2023/07/11 00:11:24;;;;;;;2.70;1.40;;;17.80;99.90;;;;;;5057313;28;20276;-82
2023/07/11 00:13:50;;;;;;;3.17;1.30;;;17.80;99.90;;;;;;5073835;28;20056;-81
2023/07/11 00:16:17;;;;;;;2.55;1.23;;;17.80;99.90;;;;;;5073386;28;20036;-81
2023/07/11 00:18:44;;;;;;;2.45;1.10;;;17.80;99.90;;;;;;5073942;28;20044;-81
2023/07/11 00:21:10;;;;;;;2.85;1.30;;;17.80;99.90;;;;;;5057101;28;20044;-79
2023/07/11 00:23:36;;;;;;;2.42;1.40;;;17.80;99.90;;;;;;5074367;28;20040;-79
2023/07/11 00:26:03;;;;;;;2.92;1.30;;;17.80;99.90;;;;;;5073379;28;20036;-79
2023/07/11 00:28:28;;;;;;;3.50;1.50;;;17.70;99.90;;;;;;5073415;28;20033;-81
2023/07/11 00:30:54;;;;;;;3.13;1.20;;;17.80;99.90;;;;;;5054171;28;20086;-80
2023/07/11 00:33:20;;;;;;;6.30;1.48;;;17.80;99.90;;;;;;5072157;28;20044;-80
2023/07/11 00:35:50;;;;;;;3.40;1.55;;;17.80;99.90;;;;;;5068730;28;20080;-80
2023/07/11 00:38:15;;;;;;;3.38;1.55;;;17.80;99.90;;;;;;5073227;28;20045;-81
2023/07/11 00:40:46;;;;;;;3.53;1.55;;;17.80;99.90;;;;;;5074345;28;20051;-79
2023/07/11 00:43:14;;;;;;;3.63;1.67;;;17.70;99.90;;;;;;5073080;28;20477;-80
2023/07/11 00:45:49;;;;;;;2.80;1.42;;;17.70;99.90;;;;;;5098716;28;20037;-80
2023/07/11 00:48:17;;;;;;;3.08;1.27;;;17.70;99.90;;;;;;5073429;28;20425;-79
2023/07/11 00:50:44;;;;;;;2.17;1.30;;;17.70;99.90;;;;;;5073637;28;20047;-81
2023/07/11 00:53:12;;;;;;;2.78;1.20;;;17.80;99.90;;;;;;5073885;28;20032;-79
2023/07/11 00:55:38;;;;;;;3.80;1.38;;;17.80;99.90;;;;;;5073124;28;20358;-80
2023/07/11 00:58:05;;;;;;;2.95;1.40;;;17.80;99.90;;;;;;5073044;28;20045;-80
2023/07/11 01:00:31;;;;;;;4.05;1.30;;;17.80;99.90;;;;;;5072592;28;20041;-80
2023/07/11 01:02:57;;;;;;;3.65;1.42;;;17.80;99.90;;;;;;5074060;28;20047;-79
2023/07/11 01:05:22;;;;;;;3.50;1.23;;;17.80;99.90;;;;;;5056552;28;20389;-80
2023/07/11 01:07:48;;;;;;;2.80;1.30;;;17.80;99.90;;;;;;5072905;28;20040;-80
2023/07/11 01:10:14;;;;;;;3.25;1.40;;;17.80;99.90;;;;;;5074117;28;20044;-80
2023/07/11 01:12:45;;;;;;;3.38;1.40;;;17.80;99.90;;;;;;5072459;28;20047;-80
2023/07/11 01:15:11;;;;;;;3.80;1.38;;;17.70;99.90;;;;;;5055890;28;20048;-80
2023/07/11 01:17:37;;;;;;;2.67;1.52;;;17.70;99.90;;;;;;5073497;28;20036;-79
2023/07/11 01:20:06;;;;;;;2.28;1.23;;;17.70;99.90;;;;;;5072547;28;20047;-79
2023/07/11 01:22:33;;;;;;;3.47;1.40;;;17.70;99.90;;;;;;5074064;28;20048;-80
2023/07/11 01:25:05;;;;;;;2.22;1.40;;;17.60;99.90;;;;;;5055802;28;20090;-81
2023/07/11 01:27:31;;;;;;;3.28;1.50;;;17.60;99.90;;;;;;5072451;28;20048;-80
2023/07/11 01:29:57;;;;;;;3.28;1.20;;;17.60;99.90;;;;;;5073246;28;20444;-80
2023/07/11 01:32:23;;;;;;;3.63;1.50;;;17.60;99.90;;;;;;5089337;28;20076;-80
2023/07/11 01:34:48;;;;;;;3.22;1.30;;;17.60;99.90;;;;;;5055256;28;20097;-82
2023/07/11 01:37:14;;;;;;;3.08;1.40;;;17.50;99.90;;;;;;5071692;28;20116;-80
2023/07/11 01:39:40;;;;;;;1.90;1.20;;;17.50;99.90;;;;;;5062901;28;20106;-80
2023/07/11 01:42:06;;;;;;;3.45;1.60;;;17.50;99.90;;;;;;5052275;28;20049;-81
2023/07/11 01:44:32;;;;;;;6.47;1.70;;;17.50;99.90;;;;;;5068951;28;20079;-80
2023/07/11 01:47:00;;;;;;;4.25;1.55;;;17.50;99.90;;;;;;5072886;28;20071;-81
2023/07/11 01:49:25;;;;;;;3.22;1.48;;;17.40;99.90;;;;;;5071774;28;20040;-80
2023/07/11 01:52:06;;;;;;;4.28;1.35;;;17.40;99.90;;;;;;5072410;28;20067;-81
2023/07/11 01:54:32;;;;;;;2.95;1.60;;;17.40;99.90;;;;;;5054744;28;20052;-81
2023/07/11 01:56:59;;;;;;;4.63;1.60;;;17.40;99.90;;;;;;5055341;28;20119;-80
2023/07/11 01:59:26;;;;;;;3.38;1.55;;;17.40;99.90;;;;;;5055740;28;20051;-80
2023/07/11 02:01:51;;;;;;;3.47;1.40;;;17.40;99.90;;;;;;5072927;28;20388;-83
2023/07/11 02:04:21;;;;;;;3.60;1.40;;;17.40;99.90;;;;;;5071604;28;20094;-83
2023/07/11 02:06:48;;;;;;;5.03;1.50;;;17.40;99.90;;;;;;5055485;28;20473;-82
2023/07/11 02:09:14;;;;;;;2.60;1.40;;;17.40;99.90;;;;;;5072329;28;20040;-81
2023/07/11 02:11:40;;;;;;;3.70;1.98;;;17.40;99.90;;;;;;5071638;28;20044;-80
2023/07/11 02:14:05;;;;;;;2.50;1.50;;;17.30;99.90;;;;;;5055281;28;20595;-81
2023/07/11 02:16:31;;;;;;;3.70;2.15;;;17.30;99.90;;;;;;5054870;28;20048;-81
2023/07/11 02:18:57;;;;;;;4.22;1.40;;;17.40;99.90;;;;;;5071077;28;20089;-82
2023/07/11 02:21:22;;;;;;;4.63;1.85;;;17.40;99.90;;;;;;5055290;28;20037;-82
2023/07/11 02:23:49;;;;;;;2.65;1.70;;;17.40;99.90;;;;;;5072680;28;20103;-82
2023/07/11 02:26:16;;;;;;;3.22;1.40;;;17.40;99.90;;;;;;5054803;28;20399;-81
2023/07/11 02:28:41;;;;;;;3.65;1.60;;;17.40;99.90;;;;;;5071550;28;20174;-81
2023/07/11 02:31:07;;;;;;;3.17;1.80;;;17.40;99.90;;;;;;5071453;28;20119;-82
2023/07/11 02:33:33;;;;;;;2.63;1.77;;;17.40;99.90;;;;;;5054943;28;20043;-82
2023/07/11 02:35:58;;;;;;;3.30;2.15;;;17.40;99.90;;;;;;5071387;28;20130;-83
2023/07/11 02:38:24;;;;;;;4.00;2.08;;;17.40;99.90;;;;;;5051769;28;20401;-81
2023/07/11 02:40:50;;;;;;;4.05;2.30;;;17.50;99.90;;;;;;5068408;28;20385;-80
2023/07/11 02:43:17;;;;;;;4.88;1.80;;;17.60;99.90;;;;;;5078808;28;20047;-81
2023/07/11 02:45:43;;;;;;;4.07;1.95;;;17.70;99.90;;;;;;5071282;28;20342;-80
2023/07/11 02:48:09;;;;;;;2.83;1.70;;;17.80;99.90;;;;;;5072396;28;20052;-82
2023/07/11 02:50:34;;;;;;;5.95;1.90;;;17.90;99.90;;;;;;5071510;28;20044;-82
2023/07/11 02:53:00;;;;;;;4.50;2.00;;;18.00;99.90;;;;;;5054712;28;20041;-82
2023/07/11 02:55:26;;;;;;;4.40;2.23;;;18.00;99.90;;;;;;5054772;28;20036;-81
2023/07/11 02:57:52;;;;;;;3.78;2.13;;;18.10;99.90;;;;;;5072676;28;20473;-80
2023/07/11 03:00:18;;;;;;;3.40;2.10;;;18.20;99.90;;;;;;5091264;28;20033;-82
2023/07/11 03:02:43;;;;;;;3.15;1.60;;;18.20;99.90;;;;;;5076158;28;20052;-80
2023/07/11 03:05:09;;;;;;;4.43;1.98;;;18.20;99.90;;;;;;5075286;28;20408;-77
2023/07/11 03:07:35;;;;;;;4.22;1.70;;;18.30;99.90;;;;;;5075957;28;20051;-81
2023/07/11 03:10:00;;;;;;;3.67;2.03;;;18.30;99.90;;;;;;5074998;28;20056;-80
2023/07/11 03:12:26;;;;;;;4.85;1.90;;;18.30;99.90;;;;;;5054939;28;20476;-83
2023/07/11 03:14:52;;;;;;;3.40;2.00;;;18.30;99.90;;;;;;5069957;28;20199;-83
2023/07/11 03:17:17;;;;;;;3.55;2.10;;;18.30;99.90;;;;;;5057841;28;20068;-78
2023/07/11 03:19:43;;;;;;;3.40;1.67;;;18.30;99.90;;;;;;5073964;28;20040;-81
2023/07/11 03:22:09;;;;;;;3.50;2.15;;;18.30;99.90;;;;;;5074710;28;20453;-81
2023/07/11 03:24:35;;;;;;;4.13;2.08;;;18.30;99.90;;;;;;5073915;28;20041;-82
2023/07/11 03:27:01;;;;;;;5.70;2.10;;;18.30;99.90;;;;;;5056545;28;20049;-83
2023/07/11 03:29:26;;;;;;;5.25;1.90;;;18.20;99.90;;;;;;5073277;28;20045;-84
2023/07/11 03:31:52;;;;;;;4.95;1.90;;;18.20;99.90;;;;;;5054359;28;20542;-81
2023/07/11 03:34:18;;;;;;;6.05;2.30;;;18.20;99.90;;;;;;5072843;28;20039;-83
2023/07/11 03:36:44;;;;;;;3.05;2.40;;;18.30;99.90;;;;;;5056038;28;20044;-83
2023/07/11 03:39:09;;;;;;;3.95;2.38;;;18.30;99.90;;;;;;5048929;28;20118;-79
2023/07/11 03:41:36;;;;;;;3.35;2.00;;;18.30;99.90;;;;;;5060974;28;20048;-83
2023/07/11 03:44:01;;;;;;;4.18;2.17;;;18.30;99.90;;;;;;5074073;28;20070;-82
2023/07/11 03:46:27;;;;;;;4.88;2.03;;;18.20;99.90;;;;;;5057834;28;20044;-79
2023/07/11 03:48:54;;;;;;;3.78;2.00;;;18.30;99.90;;;;;;5073641;28;20492;-82
2023/07/11 03:51:20;;;;;;;2.80;1.70;;;18.30;99.90;;;;;;5074433;28;20043;-82
2023/07/11 03:53:46;;;;;;;3.50;2.10;;;18.30;99.90;;;;;;5075053;28;20037;-82
2023/07/11 03:56:12;;;;;;;4.25;2.10;;;18.30;99.90;;;;;;5059188;28;20078;-82
2023/07/11 03:58:38;;;;;;;2.90;1.90;;;18.30;99.90;;;;;;5074253;28;20086;-81
2023/07/11 04:01:03;;;;;;;4.63;2.30;;;18.30;99.90;;;;;;5074149;28;20048;-80
2023/07/11 04:03:29;;;;;;;3.92;2.08;;;18.30;99.90;;;;;;5074044;28;20415;-79
2023/07/11 04:05:56;;;;;;;3.15;1.92;;;18.30;99.90;;;;;;5053641;28;20124;-82
2023/07/11 04:08:22;;;;;;;3.47;1.98;;;18.30;99.90;;;;;;5065650;28;20040;-82
2023/07/11 04:10:47;;;;;;;4.20;2.08;;;18.30;99.90;;;;;;5073983;28;20047;-81
2023/07/11 04:13:13;;;;;;;5.35;2.10;;;18.30;99.90;;;;;;5073671;28;20102;-81
2023/07/11 04:15:39;;;;;;;3.10;2.05;;;18.30;99.90;;;;;;5073920;28;20044;-82
2023/07/11 04:18:04;;;;;;;5.38;2.28;;;18.30;99.90;;;;;;5057514;28;20120;-82
2023/07/11 04:20:30;;;;;;;4.63;2.10;;;18.30;99.90;;;;;;5107495;28;20028;-82
2023/07/11 04:22:56;;;;;;;2.88;1.88;;;18.30;99.90;;;;;;5076022;28;20118;-81
2023/07/11 04:25:21;;;;;;;4.40;2.20;;;18.40;99.90;;;;;;5058876;28;20040;-82
2023/07/11 04:27:47;;;;;;;2.97;2.15;;;18.40;99.90;;;;;;5036958;28;20508;-82
2023/07/11 04:30:13;;;;;;;3.90;2.17;;;18.40;99.90;;;;;;5067350;28;20048;-82
2023/07/11 04:32:39;;;;;;;5.30;2.28;;;18.50;99.90;;;;;;5054192;28;20381;-82
2023/07/11 04:35:10;;;;;;;2.92;2.00;;;18.50;99.90;;;;;;5073401;28;20069;-82
2023/07/11 04:37:36;;;;;;;5.43;2.33;;;18.50;99.90;;;;;;5073230;28;20048;-80
2023/07/11 04:40:02;;;;;;;3.92;2.35;;;18.60;99.90;;;;;;5039891;28;20472;-82
2023/07/11 04:42:27;;;;;;;4.05;2.10;;;18.60;99.90;;;;;;5056832;28;20362;-82
2023/07/11 04:44:53;;;;;;;4.53;2.10;;;18.70;99.90;;;;;;5074610;28;20638;-81
2023/07/11 04:47:18;;;;;;;3.20;2.20;;;18.80;99.90;;;;;;5073574;28;20032;-86
2023/07/11 04:49:44;;;;;;;3.50;1.95;;;18.80;99.90;;;;;;5072910;28;20047;-81
2023/07/11 04:52:11;;;;;;;3.63;1.98;;;18.80;99.90;;;;;;5073351;28;20040;-81
2023/07/11 04:54:36;;;;;;;3.35;1.95;;;18.90;99.90;;;;;;5072859;28;20048;-82
2023/07/11 04:57:03;;;;;;;2.67;2.00;;;19.00;99.90;;;;;;5072890;28;20037;-81
2023/07/11 04:59:34;;;;;;;3.97;2.05;;;19.00;99.90;;;;;;5073057;28;20086;-80
2023/07/11 05:02:01;;;;;;;5.05;2.13;;;19.00;99.90;;;;;;5072379;28;20485;-79
2023/07/11 05:04:26;;;;;;;3.25;2.42;;;19.10;99.90;;;;;;5072731;28;20037;-79
2023/07/11 05:06:52;;;;;;;3.28;2.00;;;19.10;99.90;;;;;;5073657;28;20068;-79
2023/07/11 05:09:18;;;;;;;3.75;1.92;;;19.20;99.90;;;;;;5073274;28;20102;-80
2023/07/11 05:11:44;;;;;;;4.32;2.05;;;19.30;99.90;;;;;;5072391;28;20056;-77
2023/07/11 05:14:10;;;;;;;4.18;1.95;;;19.30;99.90;;;;;;5073006;28;20123;-80
2023/07/11 05:16:35;;;;;;;2.88;2.10;;;19.20;99.90;;;;;;5073276;28;20040;-80
2023/07/11 05:19:01;;;;;;;2.88;1.88;;;19.30;99.90;;;;;;5073596;28;20381;-77
2023/07/11 05:21:27;;;;;;;2.97;2.00;;;19.20;99.90;;;;;;5073421;28;20036;-79
2023/07/11 05:23:56;;;;;;;3.53;2.10;;;19.20;99.90;;;;;;5072035;28;20074;-80
2023/07/11 05:26:22;;;;;;;3.72;1.90;;;19.20;99.90;;;;;;5072579;28;20041;-79
2023/07/11 05:28:48;;;;;;;4.75;2.30;;;19.30;99.90;;;;;;5073870;28;20051;-79
2023/07/11 05:31:15;;;;;;;6.13;2.33;;;19.40;99.90;;;;;;5067562;28;20029;-78
2023/07/11 05:33:40;;;;;;;4.85;2.53;;;19.40;99.90;;;;;;5069405;28;20258;-80
2023/07/11 05:38:51;;;;;;;5.03;2.25;;;19.60;99.90;;;;;;5054031;28;20110;-78
2023/07/11 05:41:18;;;;;;;4.38;2.45;;;19.60;99.90;;;;;;5085711;28;20040;-80
2023/07/11 05:43:43;;;;;;;4.22;2.38;;;19.60;99.90;;;;;;5045572;28;20052;-79
2023/07/11 05:46:09;;;;;;;4.38;2.05;;;19.80;99.90;;;;;;5055094;28;20108;-80
2023/07/11 05:48:35;;;;;;;4.07;2.00;;;19.80;99.90;;;;;;5071650;28;20040;-81
2023/07/11 05:51:04;;;;;;;3.70;2.20;;;19.90;99.90;;;;;;5070322;28;20062;-80
2023/07/11 05:53:29;;;;;;;4.10;2.20;;;19.90;99.90;;;;;;5072782;28;20119;-79
2023/07/11 05:55:57;;;;;;;3.83;2.25;;;20.00;99.90;;;;;;5071897;28;20124;-78
2023/07/11 05:58:23;;;;;;;3.33;2.30;;;20.00;99.90;;;;;;5073044;28;20384;-77
2023/07/11 06:00:52;;;;;;;3.75;2.05;;;20.10;99.90;;;;;;5072968;28;20047;-77
2023/07/11 06:03:18;;;;;;;3.65;2.28;;;20.30;99.90;;;;;;5072053;28;20444;-80
2023/07/11 06:05:44;;;;;;;4.82;2.63;;;20.40;99.90;;;;;;5072901;28;20058;-77
2023/07/11 06:08:12;;;;;;;5.07;2.60;;;20.50;99.90;;;;;;5054771;28;20036;-76
2023/07/11 06:10:38;;;;;;;4.82;2.75;;;20.50;99.90;;;;;;5035729;28;20139;-77
2023/07/11 06:13:04;;;;;;;4.35;2.55;;;20.40;99.90;;;;;;5064211;28;20083;-79
2023/07/11 06:15:30;;;;;;;4.68;2.42;;;20.40;99.90;;;;;;5072699;28;20064;-68
2023/07/11 06:17:55;;;;;;;4.32;2.42;;;20.40;99.90;;;;;;5072893;28;20036;-68
2023/07/11 06:20:21;;;;;;;4.97;2.30;;;20.50;99.90;;;;;;5072604;28;20067;-68
2023/07/11 06:22:47;;;;;;;3.72;2.20;;;20.60;99.90;;;;;;5059483;28;20036;-68
2023/07/11 06:25:12;;;;;;;4.82;2.40;;;20.70;99.90;;;;;;5072575;28;20047;-68
2023/07/11 06:27:38;;;;;;;5.53;2.40;;;20.70;99.90;;;;;;5072944;28;20338;-68
2023/07/11 06:30:04;;;;;;;4.00;2.85;;;20.70;99.90;;;;;;5072608;28;20089;-68
2023/07/11 06:32:30;;;;;;;3.60;2.20;;;20.70;99.90;;;;;;5072424;28;20052;-68
2023/07/11 06:34:55;;;;;;;2.90;2.20;;;20.70;99.90;;;;;;5065482;28;20049;-67
2023/07/11 06:37:21;;;;;;;3.40;2.30;;;20.70;99.90;;;;;;5069750;28;20127;-67
2023/07/11 06:39:47;;;;;;;3.75;2.50;;;20.80;99.90;;;;;;5076554;28;20079;-69
2023/07/11 06:42:13;;;;;;;4.28;2.30;;;20.90;99.90;;;;;;5077324;28;20063;-69
2023/07/11 06:44:38;;;;;;;3.78;2.50;;;20.90;99.90;;;;;;5076247;28;20040;-68
2023/07/11 06:47:04;;;;;;;4.95;2.40;;;21.00;99.90;;;;;;5076571;28;20040;-69
2023/07/11 06:49:30;;;;;;;3.63;2.30;;;21.00;99.90;;;;;;5076253;28;20032;-68
2023/07/11 06:51:56;;;;;;;4.45;2.40;;;21.00;99.90;;;;;;5076593;28;20487;-67
2023/07/11 06:54:21;;;;;;;3.22;2.35;;;21.00;99.90;;;;;;5075981;28;20045;-67
2023/07/11 06:56:47;;;;;;;3.97;2.28;;;21.10;99.90;;;;;;5076345;28;20048;-68
2023/07/11 06:59:21;;;;;;;4.25;2.33;;;21.10;99.90;;;;;;5076404;28;20079;-67
2023/07/11 07:01:48;;;;;;;3.63;1.98;;;21.10;99.90;;;;;;5063427;28;20102;-69
2023/07/11 07:04:14;;;;;;;3.90;2.20;;;21.10;99.90;;;;;;5076129;28;20110;-68
2023/07/11 07:06:41;;;;;;;3.80;2.42;;;21.20;99.90;;;;;;5072417;28;20040;-71
2023/07/11 07:09:06;;;;;;;5.90;4.05;;;21.30;99.90;;;;;;5066544;28;20120;-68
2023/07/11 07:11:35;;;;;;;3.28;2.40;;;21.40;99.90;;;;;;5075081;28;20127;-67
2023/07/11 07:14:10;;;;;;;3.92;2.15;;;21.40;99.90;;;;;;5075352;28;20055;-66
2023/07/11 07:16:38;;;;;;;4.55;2.67;;;21.40;99.90;;;;;;5073589;28;20029;-66
2023/07/11 07:19:06;;;;;;;4.75;2.70;;;21.40;99.90;;;;;;5075039;28;20062;-67
2023/07/11 07:21:31;;;;;;;4.97;2.35;;;21.50;99.90;;;;;;5075216;28;20052;-67
2023/07/11 07:23:57;;;;;;;4.75;2.30;;;21.70;99.90;;;;;;5074897;28;20441;-66
2023/07/11 07:26:23;;;;;;;4.75;2.15;;;21.90;99.90;;;;;;5074511;28;20524;-67
2023/07/11 07:28:48;;;;;;;4.20;2.50;;;22.10;99.90;;;;;;5073963;28;20131;-66
2023/07/11 07:31:14;;;;;;;3.90;2.22;;;22.20;99.90;;;;;;5072737;28;20441;-67
2023/07/11 07:33:41;;;;;;;4.60;2.40;;;22.30;99.90;;;;;;5074843;28;20458;-66
2023/07/11 07:36:09;;;;;;;3.78;2.60;;;22.30;99.90;;;;;;5074680;28;20436;-66
2023/07/11 07:38:35;;;;;;;3.70;2.25;;;22.50;99.90;;;;;;5073415;28;20060;-67
2023/07/11 07:41:03;;;;;;;4.90;2.40;;;22.70;99.90;;;;;;5073755;28;20048;-66
2023/07/11 07:43:31;;;;;;;3.67;2.10;;;22.80;99.90;;;;;;5072147;28;20047;-67
2023/07/11 07:45:58;;;;;;;3.22;2.10;;;23.00;99.90;;;;;;5072757;28;20093;-67
2023/07/11 07:48:25;;;;;;;3.58;2.00;;;23.20;99.90;;;;;;5071289;28;20044;-67
2023/07/11 07:50:51;;;;;;;3.72;2.15;;;23.30;99.90;;;;;;5072345;28;20262;-68
2023/07/11 07:53:17;;;;;;;4.05;2.13;;;23.30;99.90;;;;;;5055835;28;20047;-66
2023/07/11 07:55:44;;;;;;;3.88;2.20;;;23.40;99.90;;;;;;5073448;28;20048;-66
2023/07/11 07:58:10;;;;;;;3.35;1.80;;;23.50;99.90;;;;;;5073391;28;20044;-66
2023/07/11 08:00:36;;;;;;;4.85;2.10;;;23.60;99.90;;;;;;5073128;28;20111;-67
2023/07/11 08:03:02;;;;;;;5.13;2.40;;;23.80;99.90;;;;;;5067311;28;20048;-68
2023/07/11 08:05:29;;;;;;;4.18;1.60;;;23.90;99.90;;;;;;5058412;28;20072;-67
2023/07/11 08:07:55;;;;;;;3.45;1.67;;;24.00;99.90;;;;;;5053238;28;20052;-68
2023/07/11 08:10:21;;;;;;;4.28;2.20;;;24.10;99.90;;;;;;5053652;28;20049;-66
2023/07/11 08:12:46;;;;;;;3.47;1.85;;;24.40;99.90;;;;;;5053737;28;20053;-67
2023/07/11 08:15:12;;;;;;;3.72;1.90;;;24.50;99.90;;;;;;5052383;28;20541;-67
2023/07/11 08:17:41;;;;;;;3.63;1.67;;;24.80;99.90;;;;;;5053482;28;20470;-68
2023/07/11 08:20:08;;;;;;;2.70;1.60;;;24.90;99.90;;;;;;5053704;28;20106;-67
2023/07/11 08:22:34;;;;;;;3.67;2.17;;;25.00;99.90;;;;;;5053200;28;20136;-68
2023/07/11 08:24:59;;;;;;;3.20;1.60;;;25.00;99.90;;;;;;5053151;28;20433;-67
2023/07/11 08:27:25;;;;;;;3.42;1.58;;;25.20;99.90;;;;;;5053535;28;20033;-67
2023/07/11 08:29:51;;;;;;;3.85;1.60;;;25.30;99.90;;;;;;5053301;28;20060;-67
2023/07/11 08:32:18;;;;;;;3.90;1.50;;;25.40;99.90;;;;;;5066525;28;20298;-68
2023/07/11 08:34:44;;;;;;;2.70;1.42;;;25.50;99.90;;;;;;5073317;28;20524;-68
2023/07/11 08:37:10;;;;;;;2.50;1.60;;;25.60;99.90;;;;;;5072746;28;20037;-68
2023/07/11 08:39:37;;;;;;;3.97;1.60;;;25.60;99.90;;;;;;5034374;28;1100561;-69
2023/07/11 08:42:31;;;;;;;4.57;1.45;;;25.70;99.90;;;;;;5073594;28;20290;-68
2023/07/11 08:45:18;;;;;;;3.72;1.70;;;25.80;99.90;;;;;;5073159;28;20067;-68
2023/07/11 08:47:55;;;;;;;3.33;1.58;;;25.90;99.90;;;;;;5073699;28;20055;-68
2023/07/11 08:50:26;;;;;;;4.50;1.50;;;26.20;99.90;;;;;;5073656;28;20045;-67
2023/07/11 08:53:04;;;;;;;2.88;1.50;;;26.20;99.90;;;;;;5074051;28;20044;-68
2023/07/11 08:55:35;;;;;;;2.58;1.42;;;26.30;99.90;;;;;;5072379;28;20524;-68
2023/07/11 08:58:25;;;;;;;4.20;1.33;;;26.40;99.90;;;;;;5072501;28;20040;-67
2023/07/11 09:00:52;;;;;;;2.72;1.58;;;26.60;99.90;;;;;;5073586;28;20400;-68
2023/07/11 09:03:46;;;;;;;2.88;1.25;;;26.60;99.90;;;;;;5073783;28;20080;-68
2023/07/11 09:06:17;;;;;;;3.28;1.70;;;26.70;99.90;;;;;;5073566;28;20481;-68
2023/07/11 09:08:45;;;;;;;3.20;1.48;;;26.80;99.90;;;;;;5073389;28;20040;-68
2023/07/11 09:11:20;;;;;;;3.58;1.85;;;26.70;99.90;;;;;;5073621;28;20131;-68
2023/07/11 09:13:54;;;;;;;2.78;1.40;;;26.70;99.90;;;;;;5073416;28;20067;-68
2023/07/11 09:16:42;;;;;;;3.50;1.80;;;26.70;99.90;;;;;;5073495;28;20044;-67
2023/07/11 09:19:17;;;;;;;3.38;1.60;;;26.80;99.90;;;;;;5073115;28;20285;-67
2023/07/11 09:22:06;;;;;;;2.83;1.43;;;27.00;99.90;;;;;;5072168;28;20091;-66
2023/07/11 09:25:07;;;;;;;2.85;1.60;;;27.10;99.90;;;;;;5055157;28;20369;-68
2023/07/11 09:27:37;;;;;;;4.03;1.58;;;27.30;99.90;;;;;;5073084;28;20043;-67
2023/07/11 09:30:45;;;;;;;3.40;1.40;;;27.20;99.90;;;;;;5073797;28;20404;-66
2023/07/11 09:33:18;;;;;;;4.18;1.60;;;27.10;99.90;;;;;;5052565;28;20095;-67
2023/07/11 09:35:45;;;;;;;3.00;1.80;;;26.90;99.90;;;;;;5052130;28;20402;-68
2023/07/11 09:38:18;;;;;;;4.55;3.08;;;26.80;99.90;;;;;;5070397;28;20039;-67
2023/07/11 09:41:02;;;;;;;4.30;1.80;;;26.80;99.90;;;;;;5070334;28;20056;-67
2023/07/11 09:43:27;;;;;;;3.65;1.73;;;27.00;99.90;;;;;;5070564;28;20040;-67
2023/07/11 09:45:53;;;;;;;4.40;1.90;;;27.10;99.90;;;;;;5072147;28;20059;-66
2023/07/11 09:48:27;;;;;;;4.25;1.90;;;27.20;99.90;;;;;;5069750;28;20457;-66
2023/07/11 09:51:19;;;;;;;3.47;1.80;;;27.30;99.90;;;;;;5071131;28;20113;-66
2023/07/11 09:53:46;;;;;;;2.83;1.50;;;27.40;99.90;;;;;;5069926;28;20044;-66
2023/07/11 09:56:16;;;;;;;5.55;2.10;;;27.40;99.90;;;;;;5070769;28;20066;-67
2023/07/11 09:58:48;;;;;;;3.58;1.88;;;27.50;99.90;;;;;;5070458;28;20362;-66
2023/07/11 10:01:24;;;;;;;2.38;1.30;;;27.50;99.90;;;;;;5069431;28;20345;-67
2023/07/11 10:03:56;;;;;;;2.38;1.65;;;27.60;99.90;;;;;;5070629;28;20116;-66
2023/07/11 10:06:39;;;;;;;4.28;1.85;;;27.60;99.90;;;;;;5069805;28;20028;-66
2023/07/11 10:09:20;;;;;;;3.35;1.55;;;27.60;99.90;;;;;;5070016;28;20558;-66
2023/07/11 10:12:18;;;;;;;2.83;1.63;;;27.60;99.90;;;;;;5069993;28;20045;-67
2023/07/11 10:14:47;;;;;;;2.95;1.70;;;27.60;99.90;;;;;;5069407;28;20146;-66
2023/07/11 10:17:20;;;;;;;2.55;1.50;;;27.60;99.90;;;;;;5069193;28;20469;-67
2023/07/11 10:19:58;;;;;;;3.30;1.60;;;27.60;99.90;;;;;;5069742;28;20044;-67
2023/07/11 10:22:26;;;;;;;2.47;1.30;;;27.70;99.90;;;;;;5068127;28;20037;-66
2023/07/11 10:25:14;;;;;;;3.03;1.48;;;27.80;99.90;;;;;;5070061;28;20037;-66
2023/07/11 10:27:42;;;;;;;2.58;1.33;;;28.00;99.90;;;;;;5072129;28;20340;-67
2023/07/11 10:30:17;;;;;;;2.60;1.50;;;28.10;99.90;;;;;;5072428;28;20036;-67
2023/07/11 10:32:48;;;;;;;2.60;1.45;;;28.10;99.90;;;;;;5071748;28;20473;-67
2023/07/11 10:35:21;;;;;;;4.03;1.40;;;28.10;99.90;;;;;;5072389;28;20044;-67
2023/07/11 10:38:01;;;;;;;3.38;1.33;;;28.00;99.90;;;;;;5072058;28;20481;-67
2023/07/11 10:40:30;;;;;;;2.13;1.33;;;27.90;99.90;;;;;;5072247;28;20045;-68
2023/07/11 10:43:18;;;;;;;2.85;1.60;;;27.90;99.90;;;;;;5072135;28;20040;-67
2023/07/11 10:45:45;;;;;;;2.00;1.20;;;28.00;99.90;;;;;;5071379;28;20117;-67
2023/07/11 10:48:14;;;;;;;3.53;1.80;;;28.10;99.90;;;;;;5072051;28;20094;-67
2023/07/11 10:50:52;;;;;;;3.75;1.60;;;28.10;99.90;;;;;;5071039;28;20362;-69
2023/07/11 10:53:29;;;;;;;4.65;1.75;;;28.20;99.90;;;;;;5072260;28;20037;-68
2023/07/11 10:56:05;;;;;;;4.13;1.88;;;28.20;99.90;;;;;;5071750;28;20374;-67
2023/07/11 10:58:31;;;;;;;3.58;1.27;;;28.20;99.90;;;;;;5071734;28;20094;-69
2023/07/11 11:01:09;;;;;;;4.45;1.42;;;28.10;99.90;;;;;;5071993;28;20036;-68
2023/07/11 11:03:46;;;;;;;2.67;1.17;;;28.00;99.90;;;;;;5071656;28;20037;-68
2023/07/11 11:06:35;;;;;;;2.70;1.50;;;27.90;99.90;;;;;;5072046;28;20036;-68
2023/07/11 11:09:13;;;;;;;2.75;1.52;;;28.00;99.90;;;;;;5071828;28;20045;-68
2023/07/11 11:11:43;;;;;;;3.33;1.40;;;28.20;99.90;;;;;;5053132;28;20473;-67
2023/07/11 11:14:47;;;;;;;3.38;1.70;;;28.40;99.90;;;;;;5070254;28;20047;-68
2023/07/11 11:17:20;;;;;;;3.00;1.25;;;28.60;99.90;;;;;;5058037;28;20123;-67
2023/07/11 11:20:15;;;;;;;2.65;1.50;;;28.60;99.90;;;;;;5072155;28;20473;-68
2023/07/11 11:22:56;;;;;;;5.15;1.50;;;28.70;99.90;;;;;;5071453;28;20109;-70
2023/07/11 11:25:27;;;;;;;4.25;1.40;;;28.60;99.90;;;;;;5075572;28;20094;-69
2023/07/11 11:28:22;;;;;;;2.00;1.13;;;28.70;99.90;;;;;;5075184;28;20051;-68
2023/07/11 11:31:11;;;;;;;4.72;1.77;;;28.20;99.90;;;;;;5075438;28;20079;-68
2023/07/11 11:34:06;;;;;;;4.05;1.50;;;28.20;99.90;;;;;;5075479;28;20051;-67
2023/07/11 11:36:52;;;;;;;2.35;1.33;;;28.30;99.90;;;;;;5072837;28;20127;-67
2023/07/11 11:39:56;;;;;;;2.53;1.67;;;28.50;99.90;;;;;;5073602;28;20059;-67
2023/07/11 11:42:27;;;;;;;2.20;1.30;;;28.80;99.90;;;;;;5035580;28;20060;-67
2023/07/11 11:44:54;;;;;;;3.35;1.48;;;28.80;99.90;;;;;;5052776;28;20605;-67
2023/07/11 11:47:21;;;;;;;3.42;1.50;;;28.90;99.90;;;;;;5064082;28;20044;-66
2023/07/11 11:49:49;;;;;;;2.63;1.30;;;29.10;99.90;;;;;;5074313;28;20358;-67
2023/07/11 11:52:15;;;;;;;2.97;1.50;;;28.80;99.90;;;;;;5074915;28;20048;-66
2023/07/11 11:54:46;;;;;;;2.67;1.35;;;28.50;99.90;;;;;;5074902;28;20052;-67
2023/07/11 11:57:24;;;;;;;2.45;1.42;;;28.60;99.90;;;;;;5075019;28;20043;-66
2023/07/11 11:59:51;;;;;;;3.78;1.60;;;28.80;99.90;;;;;;5075083;28;20052;-67
2023/07/11 12:02:37;;;;;;;2.15;1.17;;;28.80;99.90;;;;;;5074587;28;20097;-66
2023/07/11 12:05:18;;;;;;;2.95;1.33;;;28.50;99.90;;;;;;5074761;28;20464;-67
2023/07/11 12:07:44;;;;;;;3.20;1.30;;;28.40;99.90;;;;;;5074051;28;20052;-66
2023/07/11 12:10:22;;;;;;;3.05;1.40;;;28.50;99.90;;;;;;5074764;28;20073;-67
2023/07/11 12:13:14;;;;;;;2.25;1.10;;;28.70;99.90;;;;;;5074986;28;20052;-66
2023/07/11 12:15:47;;;;;;;2.85;1.30;;;28.90;99.90;;;;;;5074794;28;20084;-66
2023/07/11 12:18:37;;;;;;;3.80;1.50;;;28.70;99.90;;;;;;5074479;28;20111;-67
2023/07/11 12:21:15;;;;;;;2.28;1.30;;;28.40;99.90;;;;;;5074987;28;20098;-66
2023/07/11 12:23:47;;;;;;;3.97;1.42;;;28.20;99.90;;;;;;5074758;28;20123;-67
2023/07/11 12:26:24;;;;;;;3.28;1.42;;;28.20;99.90;;;;;;5074272;28;20115;-67
2023/07/11 12:28:54;;;;;;;3.33;1.52;;;28.20;99.90;;;;;;5074386;28;20048;-67
2023/07/11 12:31:22;;;;;;;6.07;1.50;;;28.20;99.90;;;;;;5072291;28;20048;-67
2023/07/11 12:34:11;;;;;;;2.42;1.50;;;28.10;99.90;;;;;;5074220;28;20040;-67
2023/07/11 12:37:09;;;;;;;2.17;1.38;;;28.00;99.90;;;;;;5074227;28;20033;-66
2023/07/11 12:39:41;;;;;;;1.90;1.10;;;28.00;99.90;;;;;;5048803;28;20045;-67
2023/07/11 12:42:18;;;;;;;2.83;1.42;;;28.30;99.90;;;;;;5054518;28;20048;-68
2023/07/11 12:44:44;;;;;;;2.75;1.27;;;28.60;99.90;;;;;;5053621;28;20052;-68
2023/07/11 12:47:18;;;;;;;3.10;1.35;;;28.70;99.90;;;;;;5073243;28;20036;-68
2023/07/11 12:49:47;;;;;;;2.20;1.10;;;28.80;99.90;;;;;;5053636;28;20044;-65
2023/07/11 12:52:15;;;;;;;4.32;1.40;;;29.00;99.90;;;;;;5036287;28;20045;-65
2023/07/11 12:54:42;;;;;;;2.40;1.13;;;29.00;99.90;;;;;;5053070;28;20052;-67
2023/07/11 12:57:19;;;;;;;4.20;1.55;;;28.80;99.90;;;;;;5057827;28;20064;-66
2023/07/11 12:59:45;;;;;;;2.28;1.02;;;28.70;99.90;;;;;;5072453;28;20036;-67
2023/07/11 13:02:16;;;;;;;2.88;1.40;;;28.70;99.90;;;;;;5072360;28;20090;-68
2023/07/11 13:04:50;;;;;;;2.85;1.33;;;28.80;99.90;;;;;;5073447;28;20044;-67